Alumine, Argentina
Current Conditions -  °F | °C
As of 2:00 AM on Thursday 23 Oct 2014 (Local Time) from SCQP Reporting Station
Clear Clear  
Wind Chill: 48°   Ceiling: Unl
Heat Index: 48°   Visibility: 6mi
Dew Point: 46°   Wind: 2mph
Humidity: 93%   Direction: NA
Pressure: 30.03"   Gusts: NA
Location:  39.22°S, 70.95°W
Report Text: SCQP 230500Z VRB02KT CAVOK 09/08 Q1017
Loading
Personal Weather Stations






























Interactive Weather Map
Tropical Storm Tracking
New forecast layout! Learn more

10-Day Weather Forecast

Advertisements
Track Severe Weather on mobile